Terminal Aerodrome Forecast
Issued by NWS

Home | Current Version | Previous Version | Text Only | Print | Product List | Glossary On
Versions: 1 2 3 4 5 6 7 8 9 10 11 12 13 14 15 16 17 18 19 20 21 22 23 24 25
000
FTUS45 KLKN 292320
TAFTPH
TAF
KTPH 292320Z 3000/3024 23010G20KT P6SM VCTS BKN120CB
     FM300500 36007KT P6SM SCT120
     FM301800 VRB06KT P6SM FEW120
     FM302100 26010G20KT P6SM VCTS SCT120CB
     FM302330 27015G30KT P6SM VCTS BKN120CB=

USA.gov is the U.S. government's official web portal to all federal, state and local government web resources and services.